Terminal Aerodrome Forecast
Issued by NWS Nashville, TN

Home | Current Version | Previous Version | Text Only | Print | Product List | Glossary On
Versions: 1 2 3 4 5 6 7 8 9 10 11 12 13 14 15 16 17 18 19 20 21 22 23 24 25
000
FTUS44 KOHX 301700 RRA
TAFCSV
TAF
KCSV 301740Z 3018/3118 33009KT P6SM OVC029
      TEMPO 3018/3022 SCT029
     FM302200 35007KT P6SM SCT029
     FM310200 02003KT P6SM SKC
     FM311000 00000KT 4SM BR SKC
     FM311500 15003KT P6SM SCT200=

USA.gov is the U.S. government's official web portal to all federal, state and local government web resources and services.